Terminal Aerodrome Forecast
Issued by NWS

Home | Current Version | Previous Version | Text Only | Print | Product List | Glossary On
Versions: 1 2 3 4 5 6 7 8 9 10 11 12 13 14 15 16 17 18 19 20 21 22 23 24 25
000
FTUS43 KDLH 260657 AAA
TAFHYR
TAF AMD
KHYR 260657Z 2607/2706 20008KT 5SM -SN BKN060 OVC100
      TEMPO 2607/2610 2SM -SN BKN025 OVC050
     FM261000 21005KT 6SM -SN OVC050
     FM262000 29006KT P6SM BKN050=

USA.gov is the U.S. government's official web portal to all federal, state and local government web resources and services.